Terminal Aerodrome Forecast
Issued by NWS Charleston, WV

Home | Current Version | Previous Version | Text Only | Print | Product List | Glossary On
Versions: 1 2 3 4 5 6 7 8 9 10 11 12 13 14 15 16 17 18 19 20 21 22 23 24
000
FTUS41 KRLX 020200 AAA
TAFEKN
TAF AMD
KEKN 020227Z 0202/0224 VRB03KT P6SM SCT050 SCT100
     FM021100 00000KT P6SM BKN040
     FM021400 25007KT P6SM BKN035
     FM022000 25010KT P6SM VCTS SCT040CB=

USA.gov is the U.S. government's official web portal to all federal, state and local government web resources and services.